Steele City, Nebraska
Current Conditions -  °F | °C
As of 12:35 AM on Sunday 21 Dec 2014 (Local Time) from KBIE Reporting Station
Clear Clear  
Wind Chill: 29°   Ceiling: Unl
Heat Index: 36°   Visibility: 7mi
Dew Point: 34°   Wind: 9mph
Humidity: 95%   Direction: 170°S
Pressure: 30"   Gusts: NA
Location:  40.04°N, 97.02°W
Report Text: KBIE 210635Z AUTO 17008KT 7SM CLR 02/01 A3000 RMK AO2 T00200013
Loading
Personal Weather Stations






























Interactive Weather Map New forecast layout! Learn more

10-Day Weather Forecast

Advertisements
Track Severe Weather on mobile